createdAt,value
2018-03-28T00:02:15.053Z,12.00
2018-03-28T00:04:43.245Z,13.20
2018-03-28T00:07:11.426Z,9.97
2018-03-28T00:09:39.610Z,12.97
2018-03-28T00:12:07.799Z,13.73
2018-03-28T00:14:35.992Z,10.90
2018-03-28T00:17:04.181Z,11.00
2018-03-28T00:19:32.392Z,11.73
2018-03-28T00:22:01.400Z,13.90
2018-03-28T00:24:30.647Z,15.07
2018-03-28T00:26:58.810Z,14.10
2018-03-28T00:29:26.977Z,13.23
2018-03-28T00:31:55.151Z,11.53
2018-03-28T00:34:23.301Z,12.70
2018-03-28T00:36:51.508Z,11.30
2018-03-28T00:39:19.674Z,12.00
2018-03-28T00:41:47.876Z,10.73
2018-03-28T00:44:16.065Z,9.77
2018-03-28T00:46:44.299Z,12.47
2018-03-28T00:49:12.476Z,13.50
2018-03-28T00:51:40.653Z,12.00
2018-03-28T00:54:08.824Z,13.33
2018-03-28T00:56:37.003Z,15.17
2018-03-28T00:59:05.161Z,9.67
2018-03-28T01:01:33.410Z,12.63
2018-03-28T01:04:02.383Z,14.30
2018-03-28T01:06:31.333Z,10.47
2018-03-28T01:08:59.529Z,10.80
2018-03-28T01:11:27.774Z,12.07
2018-03-28T01:13:55.970Z,11.20
2018-03-28T01:16:24.151Z,12.43
2018-03-28T01:18:52.331Z,13.53
2018-03-28T01:21:20.480Z,14.40
2018-03-28T01:23:48.649Z,11.33
2018-03-28T01:26:16.851Z,12.10
2018-03-28T01:28:45.006Z,12.30
2018-03-28T01:31:13.197Z,13.43
2018-03-28T01:33:41.378Z,13.40
2018-03-28T01:36:10.343Z,13.63
2018-03-28T01:38:38.510Z,13.90
2018-03-28T01:41:06.688Z,12.50
2018-03-28T01:43:34.909Z,12.53
2018-03-28T01:46:03.062Z,13.23
2018-03-28T01:48:31.965Z,11.10
2018-03-28T01:51:00.139Z,13.50
2018-03-28T01:53:29.103Z,13.93
2018-03-28T01:55:57.346Z,16.23
2018-03-28T01:58:25.563Z,12.10
2018-03-28T02:00:54.533Z,11.07
2018-03-28T02:03:22.705Z,11.33
2018-03-28T02:05:50.892Z,12.00
2018-03-28T02:08:19.080Z,13.80
2018-03-28T02:10:48.003Z,13.60
2018-03-28T02:13:16.200Z,14.40
2018-03-28T02:15:44.427Z,13.27
2018-03-28T02:18:13.364Z,11.53
2018-03-28T02:20:41.555Z,13.30
2018-03-28T02:23:09.746Z,13.80
2018-03-28T02:25:37.964Z,14.90
2018-03-28T02:28:06.106Z,14.10
2018-03-28T02:30:35.069Z,15.23
2018-03-28T02:33:03.257Z,17.33
2018-03-28T02:35:32.194Z,12.97
2018-03-28T02:38:00.499Z,15.93
2018-03-28T02:40:29.482Z,13.40
2018-03-28T02:42:57.644Z,18.77
2018-03-28T02:45:25.820Z,16.73
2018-03-28T02:47:54.000Z,14.67
2018-03-28T02:50:22.164Z,14.77
2018-03-28T02:52:50.386Z,18.90
2018-03-28T02:55:19.342Z,13.73
2018-03-28T02:57:47.513Z,16.00
2018-03-28T03:00:15.703Z,12.13
2018-03-28T03:02:44.282Z,15.93
2018-03-28T03:05:12.652Z,17.30
2018-03-28T03:07:40.851Z,14.37
2018-03-28T03:10:09.032Z,16.90
2018-03-28T03:12:37.198Z,18.67
2018-03-28T03:15:05.394Z,14.20
2018-03-28T03:17:34.325Z,14.70
2018-03-28T03:20:02.518Z,19.90
2018-03-28T03:22:30.738Z,18.07
2018-03-28T03:24:59.177Z,26.00
2018-03-28T03:27:27.370Z,15.23
2018-03-28T03:29:56.322Z,15.80
2018-03-28T03:32:24.491Z,14.83
2018-03-28T03:34:52.729Z,16.50
2018-03-28T03:37:20.955Z,19.00
2018-03-28T03:39:49.181Z,18.03
2018-03-28T03:42:17.386Z,16.57
2018-03-28T03:44:45.558Z,18.33
2018-03-28T03:47:13.764Z,19.30
2018-03-28T03:49:42.743Z,20.70
2018-03-28T03:52:10.925Z,18.23
2018-03-28T03:54:39.127Z,18.60
2018-03-28T03:57:08.132Z,22.47
2018-03-28T03:59:36.321Z,19.00
2018-03-28T04:02:04.489Z,22.00
2018-03-28T04:04:32.656Z,21.47
2018-03-28T04:07:00.839Z,23.73
2018-03-28T04:09:29.070Z,23.30
2018-03-28T04:11:58.011Z,21.40
2018-03-28T04:14:26.182Z,20.10
2018-03-28T04:16:54.428Z,21.10
2018-03-28T04:19:22.614Z,24.27
2018-03-28T04:21:50.829Z,21.90
2018-03-28T04:24:18.990Z,23.40
2018-03-28T04:26:47.155Z,28.77
2018-03-28T04:29:15.394Z,21.23
2018-03-28T04:31:44.334Z,25.03
2018-03-28T04:34:12.579Z,25.20
2018-03-28T04:36:40.826Z,28.03
2018-03-28T04:39:08.987Z,22.33
2018-03-28T04:41:37.948Z,27.73
2018-03-28T04:44:06.155Z,26.47
2018-03-28T04:46:35.090Z,20.37
2018-03-28T04:49:03.370Z,23.17
2018-03-28T04:51:31.551Z,25.80
2018-03-28T04:53:59.741Z,27.30
2018-03-28T04:56:27.918Z,27.13
2018-03-28T04:58:56.137Z,25.43
2018-03-28T05:01:24.325Z,28.37
2018-03-28T05:03:52.510Z,24.73
2018-03-28T05:06:20.728Z,27.77
2018-03-28T05:08:48.959Z,25.17
2018-03-28T05:11:17.198Z,24.67
2018-03-28T05:13:46.159Z,23.60
2018-03-28T05:16:14.390Z,26.50
2018-03-28T05:18:42.591Z,27.70
2018-03-28T05:21:10.763Z,35.50
2018-03-28T05:23:38.987Z,24.00
2018-03-28T05:26:07.167Z,23.87
2018-03-28T05:28:35.359Z,24.07
2018-03-28T05:31:03.523Z,28.23
2018-03-28T05:33:31.711Z,22.10
2018-03-28T05:35:59.900Z,23.60
2018-03-28T05:38:28.106Z,32.27
2018-03-28T05:40:57.056Z,26.57
2018-03-28T05:43:25.254Z,20.90
2018-03-28T05:45:53.470Z,29.90
2018-03-28T05:48:21.683Z,25.43
2018-03-28T05:50:49.893Z,28.00
2018-03-28T05:53:18.886Z,26.47
2018-03-28T05:55:47.951Z,25.57
2018-03-28T05:58:16.178Z,33.83
2018-03-28T06:00:44.355Z,25.03
2018-03-28T06:03:12.810Z,23.40
2018-03-28T06:05:41.855Z,21.70
2018-03-28T06:08:10.034Z,27.83
2018-03-28T06:10:38.228Z,25.17
2018-03-28T06:13:06.402Z,25.37
2018-03-28T06:15:34.605Z,28.50
2018-03-28T06:18:03.563Z,27.73
2018-03-28T06:20:31.743Z,29.57
2018-03-28T06:22:59.998Z,25.73
2018-03-28T06:25:28.210Z,24.23
2018-03-28T06:27:57.140Z,26.13
2018-03-28T06:30:25.338Z,29.77
2018-03-28T06:32:53.571Z,31.63
2018-03-28T06:35:21.796Z,27.93
2018-03-28T06:37:49.983Z,26.53
2018-03-28T06:40:19.070Z,30.47
2018-03-28T06:42:47.398Z,25.53
2018-03-28T06:45:15.636Z,35.03
2018-03-28T06:47:43.850Z,28.10
2018-03-28T06:50:12.085Z,31.80
2018-03-28T06:52:40.263Z,30.23
2018-03-28T06:55:09.235Z,27.37
2018-03-28T06:57:37.418Z,32.50
2018-03-28T07:00:05.595Z,26.97
2018-03-28T07:02:34.684Z,30.63
2018-03-28T07:05:02.894Z,29.83
2018-03-28T07:07:31.141Z,29.10
2018-03-28T07:09:59.310Z,32.00
2018-03-28T07:12:27.506Z,35.80
2018-03-28T07:14:56.478Z,34.67
2018-03-28T07:17:25.473Z,24.60
2018-03-28T07:19:53.779Z,27.00
2018-03-28T07:22:22.124Z,28.10
2018-03-28T07:24:51.126Z,26.57
2018-03-28T07:27:20.083Z,21.63
2018-03-28T07:29:48.283Z,27.40
2018-03-28T07:32:17.262Z,26.70
2018-03-28T07:34:45.446Z,32.23
2018-03-28T07:37:14.410Z,22.87
2018-03-28T07:39:42.622Z,28.60
2018-03-28T07:42:11.583Z,24.87
2018-03-28T07:44:39.782Z,21.47
2018-03-28T07:47:08.730Z,22.20
2018-03-28T07:49:36.936Z,26.27
2018-03-28T07:52:05.968Z,23.33
2018-03-28T07:54:34.142Z,26.70
2018-03-28T07:57:02.428Z,21.37
2018-03-28T07:59:30.678Z,20.23
2018-03-28T08:01:58.867Z,22.97
2018-03-28T08:04:27.143Z,21.23
2018-03-28T08:06:55.393Z,21.40
2018-03-28T08:09:23.671Z,24.70
2018-03-28T08:11:51.891Z,18.70
2018-03-28T08:14:20.101Z,23.37
2018-03-28T08:16:49.166Z,27.47
2018-03-28T08:19:17.438Z,19.63
2018-03-28T08:21:45.664Z,22.60
2018-03-28T08:24:13.840Z,20.10
2018-03-28T08:26:42.078Z,26.97
2018-03-28T08:29:10.319Z,24.90
2018-03-28T08:31:38.538Z,22.73
2018-03-28T08:34:06.755Z,20.40
2018-03-28T08:36:34.987Z,23.33
2018-03-28T08:39:03.981Z,25.30
2018-03-28T08:41:33.006Z,24.63
2018-03-28T08:44:01.249Z,23.20
2018-03-28T08:46:29.444Z,24.73
2018-03-28T08:48:57.706Z,22.93
2018-03-28T08:51:26.728Z,22.63
2018-03-28T08:53:54.910Z,24.63
2018-03-28T08:56:23.264Z,23.17
2018-03-28T08:58:51.437Z,23.23
2018-03-28T09:01:19.693Z,25.80
2018-03-28T09:03:48.650Z,22.50
2018-03-28T09:06:16.866Z,24.90
2018-03-28T09:08:45.152Z,25.00
2018-03-28T09:11:13.369Z,27.23
2018-03-28T09:13:41.774Z,26.90
2018-03-28T09:16:10.015Z,26.87
2018-03-28T09:18:38.279Z,23.00
2018-03-28T09:21:06.522Z,25.30
2018-03-28T09:23:34.727Z,29.47
2018-03-28T09:26:02.934Z,21.37
2018-03-28T09:28:31.157Z,24.33
2018-03-28T09:30:59.339Z,22.43
2018-03-28T09:33:28.356Z,23.70
2018-03-28T09:35:56.644Z,22.40
2018-03-28T09:38:26.171Z,20.03
2018-03-28T09:40:55.394Z,17.47
2018-03-28T09:43:23.988Z,22.47
2018-03-28T09:45:52.971Z,22.23
2018-03-28T09:48:21.938Z,20.83
2018-03-28T09:50:50.910Z,20.07
2018-03-28T09:53:19.190Z,19.23
2018-03-28T09:55:47.362Z,22.17
2018-03-28T09:58:15.546Z,16.10
2018-03-28T10:00:45.635Z,17.30
2018-03-28T10:03:13.844Z,16.73
2018-03-28T10:05:42.864Z,16.40
2018-03-28T10:08:11.046Z,18.60
2018-03-28T10:10:39.222Z,17.23
2018-03-28T10:13:07.479Z,15.43
2018-03-28T10:15:35.659Z,14.27
2018-03-28T10:18:03.872Z,17.30
2018-03-28T10:20:32.192Z,16.80
2018-03-28T10:23:01.225Z,22.30
2018-03-28T10:25:29.430Z,17.30
2018-03-28T10:27:57.659Z,16.97
2018-03-28T10:30:25.981Z,15.50
2018-03-28T10:32:54.277Z,15.53
2018-03-28T10:35:23.320Z,15.87
2018-03-28T10:37:51.494Z,18.90
2018-03-28T10:40:19.831Z,16.00
2018-03-28T10:42:48.772Z,15.50
2018-03-28T10:45:16.942Z,21.17
2018-03-28T10:47:45.112Z,15.43
2018-03-28T10:50:13.284Z,15.30
2018-03-28T10:52:41.554Z,15.70
2018-03-28T10:55:09.730Z,14.77
2018-03-28T10:57:38.053Z,17.20
2018-03-28T11:00:06.995Z,15.80
2018-03-28T11:02:35.179Z,17.37
2018-03-28T11:05:03.416Z,16.60
2018-03-28T11:07:31.611Z,20.23
2018-03-28T11:09:59.840Z,18.00
2018-03-28T11:12:28.091Z,23.50
2018-03-28T11:14:56.346Z,18.90
2018-03-28T11:17:24.912Z,20.13
2018-03-28T11:19:53.778Z,16.63
2018-03-28T11:22:22.110Z,20.70
2018-03-28T11:24:50.396Z,21.67
2018-03-28T11:27:18.748Z,16.80
2018-03-28T11:29:46.972Z,20.80
2018-03-28T11:32:15.960Z,17.07
2018-03-28T11:34:44.938Z,17.03
2018-03-28T11:37:13.342Z,21.23
2018-03-28T11:39:42.020Z,22.13
2018-03-28T11:42:11.023Z,22.20
2018-03-28T11:44:39.267Z,25.90
2018-03-28T11:47:07.497Z,24.20
2018-03-28T11:49:35.737Z,27.33
2018-03-28T11:52:04.813Z,25.43
2018-03-28T11:54:33.033Z,21.23
2018-03-28T11:57:01.256Z,19.40
2018-03-28T11:59:29.433Z,22.80
2018-03-28T12:01:57.616Z,17.93
2018-03-28T12:04:26.631Z,22.90
2018-03-28T12:06:54.823Z,22.33
2018-03-28T12:09:23.112Z,19.70
2018-03-28T12:11:51.316Z,21.10
2018-03-28T12:14:20.369Z,20.13
2018-03-28T12:16:49.339Z,23.63
2018-03-28T12:19:17.625Z,25.60
2018-03-28T12:21:45.923Z,24.03
2018-03-28T12:24:14.319Z,23.40
2018-03-28T12:26:42.614Z,23.73
2018-03-28T12:29:10.796Z,24.40
2018-03-28T12:31:39.761Z,23.70
2018-03-28T12:34:08.035Z,21.20
2018-03-28T12:36:36.264Z,24.10
2018-03-28T12:39:04.507Z,26.50
2018-03-28T12:41:32.769Z,26.77
2018-03-28T12:44:01.162Z,22.07
2018-03-28T12:46:30.128Z,24.20
2018-03-28T12:48:58.330Z,24.63
2018-03-28T12:51:27.298Z,28.30
2018-03-28T12:53:56.322Z,24.70
2018-03-28T12:56:24.487Z,25.07
2018-03-28T12:58:52.687Z,23.80
2018-03-28T13:01:21.783Z,24.13
2018-03-28T13:03:50.018Z,27.50
2018-03-28T13:06:18.193Z,23.07
2018-03-28T13:08:47.185Z,25.93
2018-03-28T13:11:16.300Z,23.53
2018-03-28T13:13:44.704Z,33.00
2018-03-28T13:16:12.893Z,25.73
2018-03-28T13:18:41.156Z,23.93
2018-03-28T13:21:09.452Z,24.67
2018-03-28T13:23:37.636Z,29.47
2018-03-28T13:26:05.831Z,28.43
2018-03-28T13:28:34.823Z,25.47
2018-03-28T13:31:03.767Z,28.80
2018-03-28T13:33:31.997Z,28.70
2018-03-28T13:36:01.004Z,30.73
2018-03-28T13:38:29.254Z,29.57
2018-03-28T13:40:58.249Z,29.20
2018-03-28T13:43:27.275Z,29.43
2018-03-28T13:45:56.724Z,27.03
2018-03-28T13:51:01.315Z,25.43
2018-03-28T13:53:29.518Z,28.03
2018-03-28T13:55:57.719Z,29.73
2018-03-28T13:58:26.122Z,31.17
2018-03-28T14:00:55.076Z,38.50
2018-03-28T14:03:23.348Z,27.90
2018-03-28T14:05:51.574Z,27.83
2018-03-28T14:08:19.780Z,33.27
2018-03-28T14:10:48.015Z,30.40
2018-03-28T14:13:16.235Z,30.37
2018-03-28T14:15:44.463Z,29.47
2018-03-28T14:18:12.737Z,29.00
2018-03-28T14:20:41.672Z,30.93
2018-03-28T14:23:09.898Z,31.93
2018-03-28T14:25:38.094Z,31.53
2018-03-28T14:28:06.339Z,25.73
2018-03-28T14:30:35.310Z,31.57
2018-03-28T14:33:03.483Z,28.43
2018-03-28T14:35:31.794Z,34.57
2018-03-28T14:38:00.015Z,32.50
2018-03-28T14:40:28.356Z,31.50
2018-03-28T14:42:56.631Z,35.33
2018-03-28T14:45:24.809Z,33.70
2018-03-28T14:47:52.974Z,30.40
2018-03-28T14:50:21.166Z,27.27
2018-03-28T14:52:49.380Z,28.83
2018-03-28T14:55:17.766Z,29.60
2018-03-28T14:57:46.206Z,14.13
2018-03-28T15:00:14.494Z,27.60
2018-03-28T15:02:42.796Z,33.73
2018-03-28T15:05:11.004Z,36.33
2018-03-28T15:07:39.257Z,35.40
2018-03-28T15:10:07.458Z,33.90
2018-03-28T15:12:35.678Z,26.67
2018-03-28T15:15:04.762Z,30.27
2018-03-28T15:17:33.159Z,36.30
2018-03-28T15:20:01.379Z,33.47
2018-03-28T15:22:29.619Z,31.30
2018-03-28T15:24:58.596Z,31.23
2018-03-28T15:27:26.803Z,31.97
2018-03-28T15:29:55.013Z,27.67
2018-03-28T15:32:23.222Z,33.93
2018-03-28T15:38:13.436Z,33.60
2018-03-28T15:40:41.624Z,32.73
2018-03-28T15:43:09.810Z,31.50
2018-03-28T15:45:38.270Z,35.23
2018-03-28T15:48:06.630Z,33.10
2018-03-28T15:50:34.981Z,36.00
2018-03-28T15:53:03.241Z,26.60
2018-03-28T15:55:31.513Z,35.10
2018-03-28T15:57:59.891Z,31.80
2018-03-28T16:00:28.320Z,31.50
2018-03-28T16:02:56.509Z,36.90
2018-03-28T16:05:24.911Z,37.93
2018-03-28T16:07:53.191Z,34.53
2018-03-28T16:10:21.474Z,37.30
2018-03-28T16:12:49.726Z,40.37
2018-03-28T16:15:17.987Z,39.00
2018-03-28T16:17:46.992Z,40.73
2018-03-28T16:20:15.266Z,38.50
2018-03-28T16:22:44.326Z,40.30
2018-03-28T16:25:12.526Z,37.33
2018-03-28T16:27:41.590Z,37.63
2018-03-28T16:30:09.782Z,42.10
2018-03-28T16:32:38.174Z,40.30
2018-03-28T16:35:07.129Z,41.20
2018-03-28T16:37:35.350Z,40.63
2018-03-28T16:40:03.523Z,41.17
2018-03-28T16:42:31.731Z,40.30
2018-03-28T16:44:59.937Z,40.33
2018-03-28T16:47:28.151Z,43.20
2018-03-28T16:49:56.407Z,43.50
2018-03-28T16:52:25.340Z,46.67
2018-03-28T16:54:53.664Z,44.40
2018-03-28T16:57:22.657Z,46.50
2018-03-28T16:59:50.871Z,36.63
2018-03-28T17:02:19.117Z,44.27
2018-03-28T17:04:48.127Z,44.97
2018-03-28T17:07:17.112Z,36.93
2018-03-28T17:09:45.359Z,42.23
2018-03-28T17:12:14.333Z,42.70
2018-03-28T17:14:42.712Z,43.00
2018-03-28T17:17:10.912Z,42.27
2018-03-28T17:19:39.135Z,43.90
2018-03-28T17:22:07.336Z,41.47
2018-03-28T17:24:35.610Z,35.93
2018-03-28T17:27:03.828Z,37.90
2018-03-28T17:29:32.091Z,44.43
2018-03-28T17:32:01.159Z,39.10
2018-03-28T17:34:29.334Z,38.57
2018-03-28T17:36:57.587Z,43.37
2018-03-28T17:39:25.857Z,38.90
2018-03-28T17:41:54.133Z,36.93
2018-03-28T17:44:22.347Z,40.77
2018-03-28T17:46:51.517Z,37.83
2018-03-28T17:49:19.722Z,40.17
2018-03-28T17:51:48.731Z,39.70
2018-03-28T17:54:16.956Z,39.10
2018-03-28T17:59:20.296Z,34.80
2018-03-28T18:01:48.520Z,36.90
2018-03-28T18:04:16.715Z,34.50
2018-03-28T18:06:45.624Z,40.00
2018-03-28T18:09:13.826Z,31.73
2018-03-28T18:11:42.092Z,36.50
2018-03-28T18:14:10.328Z,39.00
2018-03-28T18:16:38.518Z,40.33
2018-03-28T18:19:06.724Z,34.63
2018-03-28T18:21:34.944Z,40.40
2018-03-28T18:24:03.181Z,33.90
2018-03-28T18:26:31.424Z,37.07
2018-03-28T18:28:59.647Z,38.07
2018-03-28T18:31:27.867Z,34.67
2018-03-28T18:33:56.141Z,38.03
2018-03-28T18:36:24.373Z,34.70
2018-03-28T18:38:52.558Z,30.23
2018-03-28T18:41:20.747Z,33.40
2018-03-28T18:43:49.831Z,33.33
2018-03-28T18:46:18.056Z,33.70
2018-03-28T18:48:46.269Z,33.80
2018-03-28T18:51:14.695Z,31.77
2018-03-28T18:53:42.949Z,30.93
2018-03-28T18:56:11.159Z,31.27
2018-03-28T18:58:39.392Z,34.60
2018-03-28T19:01:07.683Z,27.00
2018-03-28T19:03:36.118Z,30.87
2018-03-28T19:06:04.282Z,31.30
2018-03-28T19:08:32.501Z,33.10
2018-03-28T19:11:00.702Z,31.33
2018-03-28T19:13:28.912Z,28.93
2018-03-28T19:15:57.116Z,26.70
2018-03-28T19:18:25.368Z,32.30
2018-03-28T19:20:53.641Z,28.27
2018-03-28T19:23:21.842Z,23.60
2018-03-28T19:25:50.099Z,28.70
2018-03-28T19:28:18.300Z,23.57
2018-03-28T19:30:46.631Z,30.00
2018-03-28T19:33:14.856Z,31.80
2018-03-28T19:35:43.948Z,34.37
2018-03-28T19:38:13.054Z,35.77
2018-03-28T19:40:41.296Z,31.50
2018-03-28T19:43:10.317Z,33.50
2018-03-28T19:45:39.282Z,31.57
2018-03-28T19:48:07.487Z,28.27
2018-03-28T19:50:36.506Z,34.10
2018-03-28T19:53:04.775Z,28.10
2018-03-28T19:55:33.881Z,32.03
2018-03-28T19:58:02.092Z,33.43
2018-03-28T20:00:30.357Z,32.43
2018-03-28T20:02:58.571Z,29.67
2018-03-28T20:05:27.560Z,29.00
2018-03-28T20:07:56.525Z,31.53
2018-03-28T20:10:24.795Z,37.40
2018-03-28T20:12:53.002Z,34.07
2018-03-28T20:15:22.070Z,35.20
2018-03-28T20:17:50.287Z,35.17
2018-03-28T20:20:18.592Z,41.23
2018-03-28T20:22:46.961Z,37.67
2018-03-28T20:25:15.217Z,34.80
2018-03-28T20:27:43.440Z,39.00
2018-03-28T20:30:11.704Z,39.20
2018-03-28T20:32:39.991Z,31.50
2018-03-28T20:35:08.303Z,29.67
2018-03-28T20:37:36.506Z,35.20
2018-03-28T20:40:04.731Z,37.30
2018-03-28T20:42:32.960Z,35.70
2018-03-28T20:45:01.194Z,36.30
2018-03-28T20:47:30.209Z,32.93
2018-03-28T20:49:58.421Z,34.33
2018-03-28T20:52:26.615Z,33.77
2018-03-28T20:54:54.837Z,34.57
2018-03-28T20:57:23.040Z,37.33
2018-03-28T20:59:51.251Z,36.10
2018-03-28T21:02:20.288Z,29.20
2018-03-28T21:04:48.664Z,35.20
2018-03-28T21:07:16.880Z,31.03
2018-03-28T21:09:45.103Z,35.73
2018-03-28T21:12:13.335Z,24.37
2018-03-28T21:14:42.366Z,33.07
2018-03-28T21:17:10.719Z,31.63
2018-03-28T21:19:39.815Z,37.90
2018-03-28T21:22:08.038Z,34.80
2018-03-28T21:24:36.403Z,34.90
2018-03-28T21:27:04.667Z,30.40
2018-03-28T21:29:32.975Z,33.30
2018-03-28T21:32:01.162Z,29.67
2018-03-28T21:34:29.386Z,28.83
2018-03-28T21:36:57.595Z,30.07
2018-03-28T21:39:25.843Z,29.00
2018-03-28T21:41:54.834Z,30.77
2018-03-28T21:44:23.040Z,27.67
2018-03-28T21:46:51.247Z,32.10
2018-03-28T21:49:20.312Z,30.30
2018-03-28T21:51:48.496Z,30.23
2018-03-28T21:54:16.743Z,32.60
2018-03-28T21:56:44.936Z,33.30
2018-03-28T21:59:13.181Z,30.20
2018-03-28T22:01:41.400Z,32.03
2018-03-28T22:04:10.505Z,30.53
2018-03-28T22:06:38.842Z,30.13
2018-03-28T22:09:07.035Z,25.47
2018-03-28T22:11:35.274Z,27.70
2018-03-28T22:14:03.589Z,30.73
2018-03-28T22:16:31.765Z,22.93
2018-03-28T22:18:59.998Z,32.57
2018-03-28T22:21:28.219Z,26.77
2018-03-28T22:23:56.418Z,26.60
2018-03-28T22:26:24.589Z,28.10
2018-03-28T22:28:53.555Z,31.20
2018-03-28T22:31:21.760Z,20.40
2018-03-28T22:33:49.949Z,28.20
2018-03-28T22:36:18.131Z,27.60
2018-03-28T22:38:46.340Z,30.47
2018-03-28T22:41:14.571Z,30.70
2018-03-28T22:43:42.795Z,26.00
2018-03-28T22:46:10.979Z,28.63
2018-03-28T22:48:39.938Z,29.40
2018-03-28T22:51:08.129Z,27.40
2018-03-28T22:53:36.420Z,29.20
2018-03-28T22:56:05.389Z,28.93
2018-03-28T22:58:33.575Z,26.33
2018-03-28T23:01:01.796Z,27.13
2018-03-28T23:03:30.026Z,28.40
2018-03-28T23:05:58.239Z,29.80
2018-03-28T23:08:26.430Z,28.00
2018-03-28T23:10:54.743Z,28.33
2018-03-28T23:13:22.998Z,25.63
2018-03-28T23:15:51.287Z,23.90
2018-03-28T23:18:19.476Z,27.43
2018-03-28T23:20:47.658Z,26.73
2018-03-28T23:23:15.997Z,22.80
2018-03-28T23:25:44.258Z,23.40
2018-03-28T23:28:12.455Z,25.67
2018-03-28T23:30:40.738Z,25.87
2018-03-28T23:33:09.035Z,22.60
2018-03-28T23:35:37.970Z,25.47
2018-03-28T23:38:06.189Z,24.20
2018-03-28T23:40:34.362Z,26.00
2018-03-28T23:43:03.359Z,27.97
2018-03-28T23:45:31.614Z,24.63
2018-03-28T23:47:59.816Z,25.53
2018-03-28T23:50:28.742Z,24.53
2018-03-28T23:52:56.944Z,23.50
2018-03-28T23:55:25.147Z,23.80
2018-03-28T23:57:53.332Z,22.07
